sensor_id;sensor_type;location;lat;lon;timestamp;P1;durP1;ratioP1;P2;durP2;ratioP2
8293;SDS011;4185;41.506;24.938;2023-07-13T00:00:53;13.80;;;10.10;;
8293;SDS011;4185;41.506;24.938;2023-07-13T00:03:21;12.47;;;9.77;;
8293;SDS011;4185;41.506;24.938;2023-07-13T00:05:56;11.43;;;10.10;;
8293;SDS011;4185;41.506;24.938;2023-07-13T00:08:23;13.20;;;10.53;;
8293;SDS011;4185;41.506;24.938;2023-07-13T00:10:51;13.37;;;10.20;;
8293;SDS011;4185;41.506;24.938;2023-07-13T00:13:19;15.60;;;9.60;;
8293;SDS011;4185;41.506;24.938;2023-07-13T00:15:46;11.10;;;9.90;;
8293;SDS011;4185;41.506;24.938;2023-07-13T00:18:15;12.43;;;10.10;;
8293;SDS011;4185;41.506;24.938;2023-07-13T00:20:41;13.23;;;9.93;;
8293;SDS011;4185;41.506;24.938;2023-07-13T00:23:08;12.37;;;9.90;;
8293;SDS011;4185;41.506;24.938;2023-07-13T00:25:35;12.13;;;9.93;;
8293;SDS011;4185;41.506;24.938;2023-07-13T00:28:02;11.90;;;9.53;;
8293;SDS011;4185;41.506;24.938;2023-07-13T00:30:29;12.03;;;10.00;;
8293;SDS011;4185;41.506;24.938;2023-07-13T00:32:56;11.67;;;9.80;;
8293;SDS011;4185;41.506;24.938;2023-07-13T00:35:25;12.17;;;10.30;;
8293;SDS011;4185;41.506;24.938;2023-07-13T00:37:52;13.13;;;9.77;;
8293;SDS011;4185;41.506;24.938;2023-07-13T00:40:19;10.83;;;9.37;;
8293;SDS011;4185;41.506;24.938;2023-07-13T00:42:46;13.03;;;9.27;;
8293;SDS011;4185;41.506;24.938;2023-07-13T00:48:17;11.57;;;10.23;;
8293;SDS011;4185;41.506;24.938;2023-07-13T00:50:50;11.23;;;9.67;;
8293;SDS011;4185;41.506;24.938;2023-07-13T00:53:19;10.77;;;8.97;;
8293;SDS011;4185;41.506;24.938;2023-07-13T00:55:46;10.70;;;9.43;;
8293;SDS011;4185;41.506;24.938;2023-07-13T00:58:15;13.27;;;8.93;;
8293;SDS011;4185;41.506;24.938;2023-07-13T01:00:42;11.27;;;10.00;;
8293;SDS011;4185;41.506;24.938;2023-07-13T01:03:09;12.27;;;10.00;;
8293;SDS011;4185;41.506;24.938;2023-07-13T01:05:35;12.53;;;10.40;;
8293;SDS011;4185;41.506;24.938;2023-07-13T01:08:05;13.63;;;9.07;;
8293;SDS011;4185;41.506;24.938;2023-07-13T01:10:32;11.93;;;10.10;;
8293;SDS011;4185;41.506;24.938;2023-07-13T01:13:04;11.43;;;9.77;;
8293;SDS011;4185;41.506;24.938;2023-07-13T01:15:35;10.70;;;9.60;;
8293;SDS011;4185;41.506;24.938;2023-07-13T01:18:04;13.00;;;10.10;;
8293;SDS011;4185;41.506;24.938;2023-07-13T01:20:32;11.27;;;9.60;;
8293;SDS011;4185;41.506;24.938;2023-07-13T01:23:04;12.53;;;10.10;;
8293;SDS011;4185;41.506;24.938;2023-07-13T01:25:32;12.00;;;10.13;;
8293;SDS011;4185;41.506;24.938;2023-07-13T01:28:00;11.30;;;9.97;;
8293;SDS011;4185;41.506;24.938;2023-07-13T01:30:28;12.30;;;9.53;;
8293;SDS011;4185;41.506;24.938;2023-07-13T01:32:55;10.13;;;8.93;;
8293;SDS011;4185;41.506;24.938;2023-07-13T01:35:21;10.77;;;9.67;;
8293;SDS011;4185;41.506;24.938;2023-07-13T01:37:50;17.00;;;10.33;;
8293;SDS011;4185;41.506;24.938;2023-07-13T01:40:19;11.17;;;9.70;;
8293;SDS011;4185;41.506;24.938;2023-07-13T01:42:46;10.27;;;9.17;;
8293;SDS011;4185;41.506;24.938;2023-07-13T01:45:13;11.40;;;9.40;;
8293;SDS011;4185;41.506;24.938;2023-07-13T01:47:40;11.00;;;9.43;;
8293;SDS011;4185;41.506;24.938;2023-07-13T01:50:07;10.30;;;9.03;;
8293;SDS011;4185;41.506;24.938;2023-07-13T01:52:34;10.80;;;9.70;;
8293;SDS011;4185;41.506;24.938;2023-07-13T01:55:01;11.93;;;9.43;;
8293;SDS011;4185;41.506;24.938;2023-07-13T01:57:29;17.60;;;9.70;;
8293;SDS011;4185;41.506;24.938;2023-07-13T01:59:56;11.83;;;9.83;;
8293;SDS011;4185;41.506;24.938;2023-07-13T02:02:23;12.30;;;10.27;;
8293;SDS011;4185;41.506;24.938;2023-07-13T02:04:50;11.57;;;9.40;;
8293;SDS011;4185;41.506;24.938;2023-07-13T02:07:16;12.70;;;10.57;;
8293;SDS011;4185;41.506;24.938;2023-07-13T02:09:43;11.63;;;9.97;;
8293;SDS011;4185;41.506;24.938;2023-07-13T02:12:10;11.07;;;9.57;;
8293;SDS011;4185;41.506;24.938;2023-07-13T02:14:38;11.43;;;9.97;;
8293;SDS011;4185;41.506;24.938;2023-07-13T02:17:05;11.20;;;9.63;;
8293;SDS011;4185;41.506;24.938;2023-07-13T02:19:32;11.33;;;9.77;;
8293;SDS011;4185;41.506;24.938;2023-07-13T02:21:59;12.57;;;10.30;;
8293;SDS011;4185;41.506;24.938;2023-07-13T02:24:25;12.33;;;9.93;;
8293;SDS011;4185;41.506;24.938;2023-07-13T02:26:52;11.33;;;9.60;;
8293;SDS011;4185;41.506;24.938;2023-07-13T02:29:19;12.23;;;10.43;;
8293;SDS011;4185;41.506;24.938;2023-07-13T02:31:47;13.83;;;10.97;;
8293;SDS011;4185;41.506;24.938;2023-07-13T02:34:14;11.37;;;9.93;;
8293;SDS011;4185;41.506;24.938;2023-07-13T02:36:41;12.20;;;10.30;;
8293;SDS011;4185;41.506;24.938;2023-07-13T02:39:08;14.00;;;10.50;;
8293;SDS011;4185;41.506;24.938;2023-07-13T02:41:37;12.53;;;9.40;;
8293;SDS011;4185;41.506;24.938;2023-07-13T02:44:04;11.43;;;9.67;;
8293;SDS011;4185;41.506;24.938;2023-07-13T02:46:33;13.00;;;9.87;;
8293;SDS011;4185;41.506;24.938;2023-07-13T02:49:02;11.53;;;9.63;;
8293;SDS011;4185;41.506;24.938;2023-07-13T02:51:30;11.83;;;9.73;;
8293;SDS011;4185;41.506;24.938;2023-07-13T02:53:59;10.87;;;9.57;;
8293;SDS011;4185;41.506;24.938;2023-07-13T02:56:26;12.37;;;9.87;;
8293;SDS011;4185;41.506;24.938;2023-07-13T02:58:54;11.83;;;9.60;;
8293;SDS011;4185;41.506;24.938;2023-07-13T03:01:21;11.60;;;10.40;;
8293;SDS011;4185;41.506;24.938;2023-07-13T03:03:49;10.83;;;9.73;;
8293;SDS011;4185;41.506;24.938;2023-07-13T03:06:18;11.50;;;9.40;;
8293;SDS011;4185;41.506;24.938;2023-07-13T03:08:46;10.57;;;9.27;;
8293;SDS011;4185;41.506;24.938;2023-07-13T03:11:14;12.00;;;9.43;;
8293;SDS011;4185;41.506;24.938;2023-07-13T03:13:43;11.60;;;9.57;;
8293;SDS011;4185;41.506;24.938;2023-07-13T03:16:10;10.77;;;9.50;;
8293;SDS011;4185;41.506;24.938;2023-07-13T03:18:37;12.20;;;10.10;;
8293;SDS011;4185;41.506;24.938;2023-07-13T03:21:05;11.10;;;10.00;;
8293;SDS011;4185;41.506;24.938;2023-07-13T03:23:33;13.23;;;9.60;;
8293;SDS011;4185;41.506;24.938;2023-07-13T03:26:01;11.77;;;9.93;;
8293;SDS011;4185;41.506;24.938;2023-07-13T03:28:29;12.00;;;9.70;;
8293;SDS011;4185;41.506;24.938;2023-07-13T03:30:59;12.00;;;10.03;;
8293;SDS011;4185;41.506;24.938;2023-07-13T03:33:27;11.17;;;10.07;;
8293;SDS011;4185;41.506;24.938;2023-07-13T03:35:54;11.20;;;9.27;;
8293;SDS011;4185;41.506;24.938;2023-07-13T03:38:22;11.73;;;9.70;;
8293;SDS011;4185;41.506;24.938;2023-07-13T03:40:50;11.37;;;9.53;;
8293;SDS011;4185;41.506;24.938;2023-07-13T03:43:17;10.90;;;9.80;;
8293;SDS011;4185;41.506;24.938;2023-07-13T03:45:45;12.37;;;9.93;;
8293;SDS011;4185;41.506;24.938;2023-07-13T03:48:12;13.90;;;10.47;;
8293;SDS011;4185;41.506;24.938;2023-07-13T03:50:39;13.47;;;9.43;;
8293;SDS011;4185;41.506;24.938;2023-07-13T03:53:06;12.20;;;9.43;;
8293;SDS011;4185;41.506;24.938;2023-07-13T03:55:33;12.73;;;9.40;;
8293;SDS011;4185;41.506;24.938;2023-07-13T04:00:56;11.90;;;9.57;;
8293;SDS011;4185;41.506;24.938;2023-07-13T04:03:24;15.07;;;10.40;;
8293;SDS011;4185;41.506;24.938;2023-07-13T04:05:53;12.70;;;10.43;;
8293;SDS011;4185;41.506;24.938;2023-07-13T04:08:20;11.43;;;10.23;;
8293;SDS011;4185;41.506;24.938;2023-07-13T04:10:47;11.60;;;9.70;;
8293;SDS011;4185;41.506;24.938;2023-07-13T04:13:15;11.23;;;9.70;;
8293;SDS011;4185;41.506;24.938;2023-07-13T04:15:42;11.57;;;9.80;;
8293;SDS011;4185;41.506;24.938;2023-07-13T04:18:09;11.17;;;9.73;;
8293;SDS011;4185;41.506;24.938;2023-07-13T04:20:36;13.27;;;9.60;;
8293;SDS011;4185;41.506;24.938;2023-07-13T04:23:02;12.57;;;10.80;;
8293;SDS011;4185;41.506;24.938;2023-07-13T04:25:29;16.70;;;11.33;;
8293;SDS011;4185;41.506;24.938;2023-07-13T04:27:56;11.57;;;9.80;;
8293;SDS011;4185;41.506;24.938;2023-07-13T04:30:24;11.93;;;10.50;;
8293;SDS011;4185;41.506;24.938;2023-07-13T04:32:51;12.80;;;10.00;;
8293;SDS011;4185;41.506;24.938;2023-07-13T04:35:18;11.90;;;10.00;;
8293;SDS011;4185;41.506;24.938;2023-07-13T04:37:47;10.73;;;9.37;;
8293;SDS011;4185;41.506;24.938;2023-07-13T04:40:15;12.43;;;10.37;;
8293;SDS011;4185;41.506;24.938;2023-07-13T04:42:42;11.70;;;9.67;;
8293;SDS011;4185;41.506;24.938;2023-07-13T04:45:09;12.20;;;10.50;;
8293;SDS011;4185;41.506;24.938;2023-07-13T04:47:38;12.40;;;10.80;;
8293;SDS011;4185;41.506;24.938;2023-07-13T04:50:06;14.27;;;10.93;;
8293;SDS011;4185;41.506;24.938;2023-07-13T04:52:34;14.93;;;10.10;;
8293;SDS011;4185;41.506;24.938;2023-07-13T04:55:01;14.63;;;10.00;;
8293;SDS011;4185;41.506;24.938;2023-07-13T04:57:28;12.43;;;10.30;;
8293;SDS011;4185;41.506;24.938;2023-07-13T04:59:54;12.77;;;10.90;;
8293;SDS011;4185;41.506;24.938;2023-07-13T05:02:21;12.53;;;11.10;;
8293;SDS011;4185;41.506;24.938;2023-07-13T05:04:49;12.20;;;10.27;;
8293;SDS011;4185;41.506;24.938;2023-07-13T05:07:16;15.80;;;11.10;;
8293;SDS011;4185;41.506;24.938;2023-07-13T05:09:43;11.87;;;10.33;;
8293;SDS011;4185;41.506;24.938;2023-07-13T05:12:10;11.67;;;10.47;;
8293;SDS011;4185;41.506;24.938;2023-07-13T05:14:37;12.30;;;10.77;;
8293;SDS011;4185;41.506;24.938;2023-07-13T05:17:04;13.50;;;10.70;;
8293;SDS011;4185;41.506;24.938;2023-07-13T05:19:30;11.47;;;10.27;;
8293;SDS011;4185;41.506;24.938;2023-07-13T05:21:59;13.73;;;11.40;;
8293;SDS011;4185;41.506;24.938;2023-07-13T05:24:27;16.17;;;11.07;;
8293;SDS011;4185;41.506;24.938;2023-07-13T05:26:54;12.57;;;10.00;;
8293;SDS011;4185;41.506;24.938;2023-07-13T05:29:21;14.80;;;11.67;;
8293;SDS011;4185;41.506;24.938;2023-07-13T05:31:49;12.60;;;10.50;;
8293;SDS011;4185;41.506;24.938;2023-07-13T05:34:16;13.80;;;10.63;;
8293;SDS011;4185;41.506;24.938;2023-07-13T05:36:43;13.67;;;10.70;;
8293;SDS011;4185;41.506;24.938;2023-07-13T05:39:11;12.77;;;11.10;;
8293;SDS011;4185;41.506;24.938;2023-07-13T05:41:38;13.17;;;11.73;;
8293;SDS011;4185;41.506;24.938;2023-07-13T05:44:05;13.97;;;11.03;;
8293;SDS011;4185;41.506;24.938;2023-07-13T05:46:32;14.07;;;10.77;;
8293;SDS011;4185;41.506;24.938;2023-07-13T05:48:58;13.07;;;11.67;;
8293;SDS011;4185;41.506;24.938;2023-07-13T05:51:25;13.50;;;12.10;;
8293;SDS011;4185;41.506;24.938;2023-07-13T05:53:52;13.53;;;12.13;;
8293;SDS011;4185;41.506;24.938;2023-07-13T05:56:20;14.57;;;11.77;;
8293;SDS011;4185;41.506;24.938;2023-07-13T05:58:47;16.40;;;12.30;;
8293;SDS011;4185;41.506;24.938;2023-07-13T06:01:15;14.03;;;11.20;;
8293;SDS011;4185;41.506;24.938;2023-07-13T06:03:42;13.10;;;11.70;;
8293;SDS011;4185;41.506;24.938;2023-07-13T06:06:09;13.20;;;11.80;;
8293;SDS011;4185;41.506;24.938;2023-07-13T06:08:36;13.63;;;11.83;;
8293;SDS011;4185;41.506;24.938;2023-07-13T06:11:04;12.63;;;11.17;;
8293;SDS011;4185;41.506;24.938;2023-07-13T06:13:33;14.97;;;11.67;;
8293;SDS011;4185;41.506;24.938;2023-07-13T06:16:00;12.60;;;11.30;;
8293;SDS011;4185;41.506;24.938;2023-07-13T06:18:29;12.30;;;10.23;;
8293;SDS011;4185;41.506;24.938;2023-07-13T06:20:56;11.80;;;10.07;;
8293;SDS011;4185;41.506;24.938;2023-07-13T06:23:23;12.33;;;10.33;;
8293;SDS011;4185;41.506;24.938;2023-07-13T06:25:50;12.67;;;10.60;;
8293;SDS011;4185;41.506;24.938;2023-07-13T06:28:17;12.87;;;10.90;;
8293;SDS011;4185;41.506;24.938;2023-07-13T06:30:46;11.47;;;10.27;;
8293;SDS011;4185;41.506;24.938;2023-07-13T06:33:13;12.63;;;11.30;;
8293;SDS011;4185;41.506;24.938;2023-07-13T06:35:40;11.87;;;10.63;;
8293;SDS011;4185;41.506;24.938;2023-07-13T06:38:06;11.03;;;9.77;;
8293;SDS011;4185;41.506;24.938;2023-07-13T06:40:33;13.73;;;10.67;;
8293;SDS011;4185;41.506;24.938;2023-07-13T06:43:00;11.97;;;10.67;;
8293;SDS011;4185;41.506;24.938;2023-07-13T06:45:27;14.00;;;11.50;;
8293;SDS011;4185;41.506;24.938;2023-07-13T06:47:55;12.40;;;10.90;;
8293;SDS011;4185;41.506;24.938;2023-07-13T06:50:21;12.47;;;10.73;;
8293;SDS011;4185;41.506;24.938;2023-07-13T06:52:48;13.00;;;10.87;;
8293;SDS011;4185;41.506;24.938;2023-07-13T06:55:15;12.83;;;10.67;;
8293;SDS011;4185;41.506;24.938;2023-07-13T06:57:44;14.40;;;10.90;;
8293;SDS011;4185;41.506;24.938;2023-07-13T07:00:11;11.30;;;10.10;;
8293;SDS011;4185;41.506;24.938;2023-07-13T07:02:39;11.50;;;9.43;;
8293;SDS011;4185;41.506;24.938;2023-07-13T07:05:07;10.47;;;9.47;;
8293;SDS011;4185;41.506;24.938;2023-07-13T07:07:34;13.17;;;9.90;;
8293;SDS011;4185;41.506;24.938;2023-07-13T07:10:00;11.10;;;9.93;;
8293;SDS011;4185;41.506;24.938;2023-07-13T07:12:28;12.80;;;10.03;;
8293;SDS011;4185;41.506;24.938;2023-07-13T07:14:54;12.67;;;10.43;;
8293;SDS011;4185;41.506;24.938;2023-07-13T07:17:21;10.23;;;8.98;;
8293;SDS011;4185;41.506;24.938;2023-07-13T07:19:48;10.23;;;9.00;;
8293;SDS011;4185;41.506;24.938;2023-07-13T07:22:16;13.37;;;9.10;;
8293;SDS011;4185;41.506;24.938;2023-07-13T07:24:43;10.68;;;9.45;;
8293;SDS011;4185;41.506;24.938;2023-07-13T07:27:10;10.70;;;9.35;;
8293;SDS011;4185;41.506;24.938;2023-07-13T07:29:37;10.60;;;9.50;;
8293;SDS011;4185;41.506;24.938;2023-07-13T07:32:04;9.85;;;8.85;;
8293;SDS011;4185;41.506;24.938;2023-07-13T07:34:31;10.40;;;8.95;;
8293;SDS011;4185;41.506;24.938;2023-07-13T07:36:58;10.23;;;8.73;;
8293;SDS011;4185;41.506;24.938;2023-07-13T07:39:27;10.07;;;8.55;;
8293;SDS011;4185;41.506;24.938;2023-07-13T07:41:54;11.77;;;9.73;;
8293;SDS011;4185;41.506;24.938;2023-07-13T07:44:21;10.95;;;8.77;;
8293;SDS011;4185;41.506;24.938;2023-07-13T07:46:48;11.10;;;8.40;;
8293;SDS011;4185;41.506;24.938;2023-07-13T07:49:15;10.48;;;8.32;;
8293;SDS011;4185;41.506;24.938;2023-07-13T07:51:42;13.20;;;9.75;;
8293;SDS011;4185;41.506;24.938;2023-07-13T07:54:08;12.90;;;9.10;;
8293;SDS011;4185;41.506;24.938;2023-07-13T07:56:36;11.82;;;9.15;;
8293;SDS011;4185;41.506;24.938;2023-07-13T07:59:03;10.50;;;8.98;;
8293;SDS011;4185;41.506;24.938;2023-07-13T08:01:30;9.68;;;8.68;;
8293;SDS011;4185;41.506;24.938;2023-07-13T08:03:57;10.05;;;8.27;;
8293;SDS011;4185;41.506;24.938;2023-07-13T08:06:24;10.90;;;8.23;;
8293;SDS011;4185;41.506;24.938;2023-07-13T08:08:50;10.20;;;8.05;;
8293;SDS011;4185;41.506;24.938;2023-07-13T08:11:17;8.52;;;7.72;;
8293;SDS011;4185;41.506;24.938;2023-07-13T08:13:46;8.25;;;6.97;;
8293;SDS011;4185;41.506;24.938;2023-07-13T08:16:12;10.23;;;8.13;;
8293;SDS011;4185;41.506;24.938;2023-07-13T08:18:39;9.15;;;8.10;;
8293;SDS011;4185;41.506;24.938;2023-07-13T08:21:06;10.48;;;7.75;;
8293;SDS011;4185;41.506;24.938;2023-07-13T08:23:35;7.40;;;6.70;;
8293;SDS011;4185;41.506;24.938;2023-07-13T08:26:02;7.97;;;6.00;;
8293;SDS011;4185;41.506;24.938;2023-07-13T08:28:29;6.75;;;6.05;;
8293;SDS011;4185;41.506;24.938;2023-07-13T08:31:01;6.60;;;5.90;;
8293;SDS011;4185;41.506;24.938;2023-07-13T08:33:28;5.45;;;4.70;;
8293;SDS011;4185;41.506;24.938;2023-07-13T08:35:55;5.95;;;5.07;;
8293;SDS011;4185;41.506;24.938;2023-07-13T08:38:22;4.85;;;3.40;;
8293;SDS011;4185;41.506;24.938;2023-07-13T08:40:50;4.68;;;3.42;;
8293;SDS011;4185;41.506;24.938;2023-07-13T08:43:20;5.80;;;3.70;;
8293;SDS011;4185;41.506;24.938;2023-07-13T08:45:52;7.18;;;4.15;;
8293;SDS011;4185;41.506;24.938;2023-07-13T08:48:25;6.95;;;5.20;;
8293;SDS011;4185;41.506;24.938;2023-07-13T08:50:55;5.20;;;4.55;;
8293;SDS011;4185;41.506;24.938;2023-07-13T08:53:25;5.60;;;4.07;;
8293;SDS011;4185;41.506;24.938;2023-07-13T08:55:59;9.25;;;3.97;;
8293;SDS011;4185;41.506;24.938;2023-07-13T08:58:26;5.53;;;4.25;;
8293;SDS011;4185;41.506;24.938;2023-07-13T09:00:56;4.75;;;4.10;;
8293;SDS011;4185;41.506;24.938;2023-07-13T09:03:33;7.00;;;4.47;;
8293;SDS011;4185;41.506;24.938;2023-07-13T09:06:06;7.30;;;4.40;;
8293;SDS011;4185;41.506;24.938;2023-07-13T09:08:43;8.27;;;4.18;;
8293;SDS011;4185;41.506;24.938;2023-07-13T09:11:23;6.38;;;4.15;;
8293;SDS011;4185;41.506;24.938;2023-07-13T09:14:04;5.80;;;4.47;;
8293;SDS011;4185;41.506;24.938;2023-07-13T09:16:39;6.05;;;4.38;;
8293;SDS011;4185;41.506;24.938;2023-07-13T09:19:11;5.22;;;4.10;;
8293;SDS011;4185;41.506;24.938;2023-07-13T09:21:42;8.13;;;4.35;;
8293;SDS011;4185;41.506;24.938;2023-07-13T09:24:22;6.78;;;4.22;;
8293;SDS011;4185;41.506;24.938;2023-07-13T09:26:55;8.15;;;5.40;;
8293;SDS011;4185;41.506;24.938;2023-07-13T09:29:26;5.85;;;4.70;;
8293;SDS011;4185;41.506;24.938;2023-07-13T09:31:57;7.65;;;4.47;;
8293;SDS011;4185;41.506;24.938;2023-07-13T09:34:29;8.13;;;4.47;;
8293;SDS011;4185;41.506;24.938;2023-07-13T09:36:56;7.53;;;4.60;;
8293;SDS011;4185;41.506;24.938;2023-07-13T09:39:24;6.97;;;4.55;;
8293;SDS011;4185;41.506;24.938;2023-07-13T09:41:54;7.90;;;4.63;;
8293;SDS011;4185;41.506;24.938;2023-07-13T09:44:30;6.40;;;5.50;;
8293;SDS011;4185;41.506;24.938;2023-07-13T09:47:00;6.07;;;4.90;;
8293;SDS011;4185;41.506;24.938;2023-07-13T09:49:31;8.40;;;5.20;;
8293;SDS011;4185;41.506;24.938;2023-07-13T09:52:02;9.00;;;5.35;;
8293;SDS011;4185;41.506;24.938;2023-07-13T09:54:32;6.47;;;5.80;;
8293;SDS011;4185;41.506;24.938;2023-07-13T09:57:01;6.85;;;5.43;;
8293;SDS011;4185;41.506;24.938;2023-07-13T09:59:29;6.53;;;5.53;;
8293;SDS011;4185;41.506;24.938;2023-07-13T10:01:58;9.10;;;6.32;;
8293;SDS011;4185;41.506;24.938;2023-07-13T10:04:27;8.02;;;5.55;;
8293;SDS011;4185;41.506;24.938;2023-07-13T10:07:05;6.78;;;5.18;;
8293;SDS011;4185;41.506;24.938;2023-07-13T10:09:33;14.27;;;8.52;;
8293;SDS011;4185;41.506;24.938;2023-07-13T10:12:00;7.38;;;5.10;;
8293;SDS011;4185;41.506;24.938;2023-07-13T10:14:27;8.20;;;5.07;;
8293;SDS011;4185;41.506;24.938;2023-07-13T10:16:56;9.02;;;5.28;;
8293;SDS011;4185;41.506;24.938;2023-07-13T10:19:27;5.50;;;4.82;;
8293;SDS011;4185;41.506;24.938;2023-07-13T10:21:59;6.53;;;5.20;;
8293;SDS011;4185;41.506;24.938;2023-07-13T10:24:30;7.30;;;5.32;;
8293;SDS011;4185;41.506;24.938;2023-07-13T10:27:00;6.82;;;5.47;;
8293;SDS011;4185;41.506;24.938;2023-07-13T10:29:38;7.20;;;4.93;;
8293;SDS011;4185;41.506;24.938;2023-07-13T10:32:09;6.00;;;5.25;;
8293;SDS011;4185;41.506;24.938;2023-07-13T10:34:37;6.78;;;4.82;;
8293;SDS011;4185;41.506;24.938;2023-07-13T10:37:05;6.68;;;5.10;;
8293;SDS011;4185;41.506;24.938;2023-07-13T10:39:43;6.20;;;4.90;;
8293;SDS011;4185;41.506;24.938;2023-07-13T10:42:11;6.35;;;5.05;;
8293;SDS011;4185;41.506;24.938;2023-07-13T10:44:44;8.05;;;5.68;;
8293;SDS011;4185;41.506;24.938;2023-07-13T10:47:12;6.63;;;5.63;;
8293;SDS011;4185;41.506;24.938;2023-07-13T10:49:41;5.97;;;5.22;;
8293;SDS011;4185;41.506;24.938;2023-07-13T10:58:02;6.90;;;5.90;;
8293;SDS011;4185;41.506;24.938;2023-07-13T11:00:42;6.38;;;5.72;;
8293;SDS011;4185;41.506;24.938;2023-07-13T11:03:13;7.35;;;5.47;;
8293;SDS011;4185;41.506;24.938;2023-07-13T11:05:43;7.30;;;5.72;;
8293;SDS011;4185;41.506;24.938;2023-07-13T11:08:15;8.65;;;5.45;;
8293;SDS011;4185;41.506;24.938;2023-07-13T11:10:48;7.45;;;5.65;;
8293;SDS011;4185;41.506;24.938;2023-07-13T11:16:36;7.57;;;5.55;;
8293;SDS011;4185;41.506;24.938;2023-07-13T11:19:27;8.35;;;5.57;;
8293;SDS011;4185;41.506;24.938;2023-07-13T11:22:12;7.65;;;6.28;;
8293;SDS011;4185;41.506;24.938;2023-07-13T11:24:49;8.27;;;5.68;;
8293;SDS011;4185;41.506;24.938;2023-07-13T11:30:24;6.55;;;5.72;;
8293;SDS011;4185;41.506;24.938;2023-07-13T11:33:09;6.63;;;5.93;;
8293;SDS011;4185;41.506;24.938;2023-07-13T11:35:41;7.13;;;5.75;;
8293;SDS011;4185;41.506;24.938;2023-07-13T11:38:27;6.97;;;5.88;;
8293;SDS011;4185;41.506;24.938;2023-07-13T11:40:56;7.22;;;5.15;;
8293;SDS011;4185;41.506;24.938;2023-07-13T11:43:30;6.00;;;5.40;;
8293;SDS011;4185;41.506;24.938;2023-07-13T11:45:59;5.28;;;4.57;;
8293;SDS011;4185;41.506;24.938;2023-07-13T11:48:38;7.50;;;5.03;;
8293;SDS011;4185;41.506;24.938;2023-07-13T11:51:06;6.63;;;5.32;;
8293;SDS011;4185;41.506;24.938;2023-07-13T11:53:45;7.20;;;5.78;;
8293;SDS011;4185;41.506;24.938;2023-07-13T11:56:13;7.22;;;5.63;;
8293;SDS011;4185;41.506;24.938;2023-07-13T11:58:42;6.30;;;5.25;;
8293;SDS011;4185;41.506;24.938;2023-07-13T12:01:15;6.45;;;5.32;;
8293;SDS011;4185;41.506;24.938;2023-07-13T12:03:48;7.47;;;4.95;;
8293;SDS011;4185;41.506;24.938;2023-07-13T12:06:21;6.68;;;5.20;;
8293;SDS011;4185;41.506;24.938;2023-07-13T12:08:55;6.50;;;4.53;;
8293;SDS011;4185;41.506;24.938;2023-07-13T12:11:23;8.80;;;5.22;;
8293;SDS011;4185;41.506;24.938;2023-07-13T12:13:52;6.97;;;5.15;;
8293;SDS011;4185;41.506;24.938;2023-07-13T12:16:22;7.07;;;5.05;;
8293;SDS011;4185;41.506;24.938;2023-07-13T12:18:53;8.63;;;5.05;;
8293;SDS011;4185;41.506;24.938;2023-07-13T12:21:22;5.38;;;4.70;;
8293;SDS011;4185;41.506;24.938;2023-07-13T12:23:56;6.28;;;5.00;;
8293;SDS011;4185;41.506;24.938;2023-07-13T12:26:22;9.07;;;5.10;;
8293;SDS011;4185;41.506;24.938;2023-07-13T12:28:53;6.50;;;4.90;;
8293;SDS011;4185;41.506;24.938;2023-07-13T12:31:26;6.68;;;4.88;;
8293;SDS011;4185;41.506;24.938;2023-07-13T12:33:58;5.10;;;4.60;;
8293;SDS011;4185;41.506;24.938;2023-07-13T12:36:29;5.55;;;5.00;;
8293;SDS011;4185;41.506;24.938;2023-07-13T12:38:59;6.72;;;5.18;;
8293;SDS011;4185;41.506;24.938;2023-07-13T12:41:38;6.32;;;4.95;;
8293;SDS011;4185;41.506;24.938;2023-07-13T12:44:09;6.45;;;4.75;;
8293;SDS011;4185;41.506;24.938;2023-07-13T12:46:38;6.18;;;4.88;;
8293;SDS011;4185;41.506;24.938;2023-07-13T12:49:05;6.22;;;5.13;;
8293;SDS011;4185;41.506;24.938;2023-07-13T12:51:33;6.38;;;5.45;;
8293;SDS011;4185;41.506;24.938;2023-07-13T12:54:05;6.50;;;5.68;;
8293;SDS011;4185;41.506;24.938;2023-07-13T12:56:38;6.40;;;5.53;;
8293;SDS011;4185;41.506;24.938;2023-07-13T12:59:05;7.70;;;5.90;;
8293;SDS011;4185;41.506;24.938;2023-07-13T13:01:34;7.78;;;5.55;;
8293;SDS011;4185;41.506;24.938;2023-07-13T13:04:03;8.57;;;5.95;;
8293;SDS011;4185;41.506;24.938;2023-07-13T13:06:32;6.95;;;5.75;;
8293;SDS011;4185;41.506;24.938;2023-07-13T13:09:01;7.35;;;5.50;;
8293;SDS011;4185;41.506;24.938;2023-07-13T13:11:29;10.80;;;6.40;;
8293;SDS011;4185;41.506;24.938;2023-07-13T13:13:57;6.18;;;5.57;;
8293;SDS011;4185;41.506;24.938;2023-07-13T13:16:29;8.40;;;6.20;;
8293;SDS011;4185;41.506;24.938;2023-07-13T13:18:59;7.88;;;5.85;;
8293;SDS011;4185;41.506;24.938;2023-07-13T13:21:38;7.85;;;6.03;;
8293;SDS011;4185;41.506;24.938;2023-07-13T13:24:08;9.27;;;6.10;;
8293;SDS011;4185;41.506;24.938;2023-07-13T13:26:37;8.05;;;6.07;;
8293;SDS011;4185;41.506;24.938;2023-07-13T13:29:09;8.32;;;5.90;;
8293;SDS011;4185;41.506;24.938;2023-07-13T13:31:39;9.55;;;7.32;;
8293;SDS011;4185;41.506;24.938;2023-07-13T13:34:08;8.40;;;7.60;;
8293;SDS011;4185;41.506;24.938;2023-07-13T13:36:36;7.95;;;7.20;;
8293;SDS011;4185;41.506;24.938;2023-07-13T13:39:05;9.75;;;7.78;;
8293;SDS011;4185;41.506;24.938;2023-07-13T13:41:41;10.40;;;6.97;;
8293;SDS011;4185;41.506;24.938;2023-07-13T13:44:08;8.30;;;6.82;;
8293;SDS011;4185;41.506;24.938;2023-07-13T13:46:36;7.63;;;6.47;;
8293;SDS011;4185;41.506;24.938;2023-07-13T13:49:03;7.20;;;6.38;;
8293;SDS011;4185;41.506;24.938;2023-07-13T13:51:31;9.90;;;5.90;;
8293;SDS011;4185;41.506;24.938;2023-07-13T13:53:58;7.20;;;5.72;;
8293;SDS011;4185;41.506;24.938;2023-07-13T13:56:26;7.28;;;6.55;;
8293;SDS011;4185;41.506;24.938;2023-07-13T13:58:53;9.50;;;6.45;;
8293;SDS011;4185;41.506;24.938;2023-07-13T14:01:21;7.72;;;6.65;;
8293;SDS011;4185;41.506;24.938;2023-07-13T14:03:49;9.60;;;6.70;;
8293;SDS011;4185;41.506;24.938;2023-07-13T14:06:17;9.18;;;6.85;;
8293;SDS011;4185;41.506;24.938;2023-07-13T14:08:45;7.90;;;7.10;;
8293;SDS011;4185;41.506;24.938;2023-07-13T14:11:14;7.50;;;6.28;;
8293;SDS011;4185;41.506;24.938;2023-07-13T14:13:43;6.82;;;6.00;;
8293;SDS011;4185;41.506;24.938;2023-07-13T14:16:13;6.35;;;5.75;;
8293;SDS011;4185;41.506;24.938;2023-07-13T14:18:42;10.35;;;6.93;;
8293;SDS011;4185;41.506;24.938;2023-07-13T14:21:11;7.88;;;6.93;;
8293;SDS011;4185;41.506;24.938;2023-07-13T14:23:39;10.15;;;7.38;;
8293;SDS011;4185;41.506;24.938;2023-07-13T14:26:10;8.45;;;6.88;;
8293;SDS011;4185;41.506;24.938;2023-07-13T14:28:39;7.97;;;7.18;;
8293;SDS011;4185;41.506;24.938;2023-07-13T14:31:08;7.63;;;6.93;;
8293;SDS011;4185;41.506;24.938;2023-07-13T14:33:36;7.97;;;5.65;;
8293;SDS011;4185;41.506;24.938;2023-07-13T14:36:03;7.90;;;6.05;;
8293;SDS011;4185;41.506;24.938;2023-07-13T14:38:43;6.53;;;5.93;;
8293;SDS011;4185;41.506;24.938;2023-07-13T14:41:11;9.98;;;6.80;;
8293;SDS011;4185;41.506;24.938;2023-07-13T14:43:37;9.43;;;6.40;;
8293;SDS011;4185;41.506;24.938;2023-07-13T14:46:04;7.70;;;5.47;;
8293;SDS011;4185;41.506;24.938;2023-07-13T14:48:31;10.20;;;5.50;;
8293;SDS011;4185;41.506;24.938;2023-07-13T14:50:58;9.68;;;5.82;;
8293;SDS011;4185;41.506;24.938;2023-07-13T14:53:26;6.45;;;5.40;;
8293;SDS011;4185;41.506;24.938;2023-07-13T14:55:53;9.82;;;5.97;;
8293;SDS011;4185;41.506;24.938;2023-07-13T14:58:22;8.85;;;7.95;;
8293;SDS011;4185;41.506;24.938;2023-07-13T15:00:49;8.93;;;7.45;;
8293;SDS011;4185;41.506;24.938;2023-07-13T15:03:21;10.45;;;6.72;;
8293;SDS011;4185;41.506;24.938;2023-07-13T15:05:51;13.60;;;7.18;;
8293;SDS011;4185;41.506;24.938;2023-07-13T15:08:18;10.38;;;7.50;;
8293;SDS011;4185;41.506;24.938;2023-07-13T15:10:45;8.02;;;7.22;;
8293;SDS011;4185;41.506;24.938;2023-07-13T15:13:13;8.77;;;7.18;;
8293;SDS011;4185;41.506;24.938;2023-07-13T15:15:45;8.50;;;6.88;;
8293;SDS011;4185;41.506;24.938;2023-07-13T15:18:14;8.80;;;7.63;;